Latest Weather Observations for Omeo

IDV60801

Issued at 4:02 pm EST Wednesday 24 August 2016 (issued every 30 minutes, with the page automatically refreshed every 10 minutes)

About weather observations | Map of weather stations | Latest weather observations for VIC | Other Formats
Station Details ID: 083090 Name: OMEO Lat: -37.10 Lon: 147.60 Height: 689.8 m
Data from the previous 72 hours. | See also: Recent months at Omeo
Date/Time
EST
Temp
°C
App
Temp
°C
Dew
Point
°C
Rel
Hum
%
Delta-T
°C
Wind Press
QNH
hPa
Press
MSL
hPa
Rain since
9am
mm
Dir  Spd
km/h
Gust
km/h
Spd
kts
Gust
kts
24/04:00pm 7.9 3.6 3.2 72 2.1 SE 15 20 8 11 1010.7 1011.4 -
24/03:30pm 8.3 4.0 3.2 70 2.3 SE 15 22 8 12 1010.6 1011.3 0.2
24/03:00pm 8.6 3.9 3.0 68 2.5 SE 17 26 9 14 1010.6 1011.3 0.2
24/02:30pm 9.3 5.1 3.7 68 2.5 SE 15 20 8 11 1010.8 1011.5 0.2
24/02:00pm 8.9 4.6 3.5 69 2.4 SE 15 22 8 12 1010.9 1011.6 0.2
24/01:30pm 9.1 5.1 3.1 66 2.7 SE 13 19 7 10 1011.0 1011.7 0.2
24/01:00pm 9.6 6.2 4.2 69 2.5 SE 11 17 6 9 1011.5 1012.2 0.0
24/12:30pm 8.9 6.2 3.7 70 2.4 SSE 7 11 4 6 1012.2 1012.9 0.0
24/12:00pm 7.3 5.5 3.2 75 1.8 N 2 6 1 3 1012.8 1013.5 0.0
24/11:30am 5.6 3.3 2.8 82 1.2 N 4 7 2 4 1013.6 1014.3 0.0
24/11:00am 4.0 1.9 1.9 86 0.9 NW 2 7 1 4 1013.9 1014.6 0.0
24/10:30am 2.4 -1.1 1.5 94 0.4 N 9 13 5 7 1014.3 1015.1 0.0
24/10:00am 1.6 -0.6 0.9 95 0.3 NE 2 6 1 3 1014.7 1015.5 0.0
24/09:30am 1.4 -0.9 0.7 95 0.3 NNE 2 7 1 4 1014.8 1015.6 0.0
24/09:00am 1.0 -1.7 0.6 97 0.2 NNE 4 7 2 4 1015.3 1016.0 0.2
24/08:30am 0.7 -2.6 0.3 97 0.2 NNW 7 11 4 6 1015.5 1016.3 0.2
24/08:00am 0.6 -2.5 0.0 96 0.2 WNW 6 9 3 5 1015.4 1016.1 0.2
24/07:30am 0.4 -2.0 -0.3 95 0.3 NW 2 6 1 3 1015.6 1016.4 0.2
24/07:00am 0.0 -2.8 -0.7 95 0.3 N 4 6 2 3 1015.5 1016.3 0.2
24/06:30am -0.3 -3.8 -1.1 94 0.3 SW 7 9 4 5 1015.2 1015.9 0.2
24/06:00am 0.3 -1.8 -0.8 92 0.4 CALM 0 0 0 0 1015.1 1015.8 0.2
24/05:30am 0.9 -1.5 -0.1 93 0.4 SSW 2 7 1 4 1015.1 1015.8 0.2
24/05:00am 0.9 -1.5 -0.2 92 0.4 WSW 2 6 1 3 1015.1 1015.8 0.2
24/04:30am 1.2 -1.2 0.0 92 0.5 SW 2 6 1 3 1015.0 1015.7 0.2
24/04:00am 1.5 -1.5 0.5 93 0.4 SW 6 9 3 5 1015.0 1015.7 0.2
24/03:30am 1.9 -1.7 0.9 93 0.4 SW 9 13 5 7 1015.1 1015.8 0.2
24/03:00am 2.0 -1.2 1.0 93 0.4 SW 7 13 4 7 1015.5 1016.3 0.2
24/02:30am 1.2 -1.1 0.3 94 0.3 ENE 2 7 1 4 1015.8 1016.6 0.2
24/02:00am 1.1 -1.2 0.4 95 0.3 SSW 2 7 1 4 1016.2 1017.0 0.2
24/01:30am 0.9 -1.4 0.3 96 0.2 SW 2 7 1 4 1016.3 1017.1 0.2
24/01:00am 0.2 -1.8 -0.2 97 0.1 CALM 0 0 0 0 1016.6 1017.3 0.2
24/12:30am -0.2 -2.7 -0.8 96 0.2 SSW 2 6 1 3 1016.8 1017.6 0.2
24/12:00am -0.5 -3.0 -1.2 95 0.2 SSE 2 7 1 4 1016.8 1017.6 0.2
 
Date/Time
EST
Temp
°C
App
Temp
°C
Dew
Point
°C
Rel
Hum
%
Delta-T
°C
Wind Press
QNH
hPa
Press
MSL
hPa
Rain since
9am
mm
Dir  Spd
km/h
Gust
km/h
Spd
kts
Gust
kts
23/11:30pm -0.1 -2.2 -0.8 95 0.3 CALM 0 0 0 0 1017.0 1017.8 0.2
23/11:00pm 0.3 -1.7 -0.4 95 0.3 CALM 0 6 0 3 1016.9 1017.7 0.2
23/10:30pm 0.2 -1.9 -0.5 95 0.3 CALM 0 0 0 0 1016.9 1017.7 0.2
23/10:00pm 0.5 -1.5 -0.4 94 0.3 CALM 0 0 0 0 1016.7 1017.4 0.2
23/09:30pm 1.2 -0.7 0.3 94 0.3 CALM 0 7 0 4 1017.0 1017.8 0.2
23/09:00pm 1.3 -0.7 0.1 92 0.5 CALM 0 0 0 0 1017.0 1017.8 0.2
23/08:30pm 1.9 -1.7 0.4 90 0.6 SW 9 11 5 6 1016.8 1017.6 0.2
23/08:00pm 3.1 -0.4 1.3 88 0.7 SSW 9 13 5 7 1016.3 1017.1 0.2
23/07:30pm 3.8 0.3 1.5 85 0.9 SSW 9 15 5 8 1016.1 1016.9 0.2
23/07:00pm 3.5 0.6 1.5 87 0.8 SSE 6 11 3 6 1015.8 1016.6 0.2
23/06:30pm 4.2 1.8 1.9 85 1.0 SE 4 7 2 4 1015.7 1016.5 0.2
23/06:00pm 5.4 3.1 2.6 82 1.2 SSE 4 7 2 4 1015.6 1016.4 0.2
23/05:30pm 6.5 3.8 2.6 76 1.7 S 6 9 3 5 1015.8 1016.6 0.2
23/05:00pm 7.7 5.9 1.5 65 2.6 CALM 0 0 0 0 1015.8 1016.6 0.2
23/04:30pm 9.7 6.9 3.4 65 2.8 SSE 7 11 4 6 1015.4 1016.1 0.2
23/04:00pm 9.9 7.1 3.2 63 3.0 SE 7 11 4 6 1015.2 1015.9 0.2
23/03:30pm 10.0 6.9 3.7 65 2.9 SE 9 13 5 7 1015.3 1016.0 0.2
23/03:00pm 9.8 6.8 4.2 68 2.6 SSE 9 15 5 8 1015.2 1015.9 0.2
23/02:30pm 8.9 6.4 3.9 71 2.3 SSE 6 7 3 4 1015.3 1016.0 0.2
23/02:00pm 8.3 5.2 3.8 73 2.0 SE 9 17 5 9 1015.5 1016.3 0.2
23/01:30pm 7.4 4.8 4.2 80 1.4 SSE 7 13 4 7 1015.2 1015.9 0.2
23/01:00pm 6.9 4.0 4.6 85 1.0 SSE 9 15 5 8 1015.2 1015.9 0.2
23/12:30pm 7.2 3.8 4.2 81 1.4 SSE 11 17 6 9 1015.5 1016.3 0.2
23/12:00pm 7.9 3.9 4.8 81 1.4 SE 15 22 8 12 1015.7 1016.5 0.2
23/11:30am 7.2 4.2 6.0 92 0.6 SE 11 19 6 10 1015.8 1016.6 0.2
23/11:00am 6.3 3.0 4.8 90 0.7 SE 11 20 6 11 1015.9 1016.7 0.0
23/10:30am 6.6 3.4 5.1 90 0.7 SE 11 19 6 10 1015.8 1016.6 0.0
23/10:00am 6.3 4.2 5.6 95 0.3 SE 6 9 3 5 1015.9 1016.7 0.0
23/09:30am 5.6 4.2 5.3 98 0.1 WNW 2 6 1 3 1016.0 1016.8 0.0
23/09:00am 4.8 3.2 4.7 99 0.0 W 2 6 1 3 1015.9 1016.7 2.6
23/08:30am 4.5 3.3 4.4 99 0.0 CALM 0 6 0 3 1015.9 1016.7 2.6
23/08:00am 4.1 2.8 4.0 99 0.0 CALM 0 0 0 0 1015.6 1016.4 2.6
23/07:30am 3.7 2.3 3.6 99 0.0 CALM 0 0 0 0 1015.3 1016.0 2.4
23/07:00am 3.5 2.1 3.4 99 0.0 CALM 0 0 0 0 1015.0 1015.7 2.4
23/06:30am 3.2 1.7 3.1 99 0.0 CALM 0 0 0 0 1014.8 1015.6 2.4
23/06:00am 3.2 1.7 3.1 99 0.0 CALM 0 0 0 0 1014.4 1015.2 2.4
23/05:30am 2.9 1.4 2.8 99 0.0 CALM 0 0 0 0 1014.3 1015.1 2.4
23/05:00am 2.9 1.4 2.8 99 0.0 CALM 0 0 0 0 1014.1 1014.8 2.4
23/04:30am 2.8 1.2 2.7 99 0.0 CALM 0 0 0 0 1014.2 1014.9 2.4
23/04:00am 2.7 0.8 2.6 99 0.0 SW 2 7 1 4 1014.1 1014.8 2.4
23/03:30am 2.5 0.9 2.2 98 0.1 CALM 0 0 0 0 1013.9 1014.6 2.4
23/03:00am 2.3 0.6 2.0 98 0.1 CALM 0 0 0 0 1014.0 1014.7 2.4
23/02:30am 2.6 1.0 2.3 98 0.1 CALM 0 0 0 0 1014.0 1014.7 2.4
23/02:00am 2.6 1.0 2.3 98 0.1 CALM 0 0 0 0 1014.0 1014.7 2.4
23/01:30am 3.0 0.7 2.7 98 0.1 S 4 9 2 5 1014.2 1014.9 2.4
23/01:00am 2.6 0.6 2.3 98 0.1 NE 2 7 1 4 1014.1 1014.8 2.4
23/12:30am 2.7 -0.2 2.4 98 0.1 SW 7 9 4 5 1014.2 1014.9 2.4
23/12:00am 2.2 0.5 1.8 97 0.2 CALM 0 0 0 0 1014.3 1015.1 2.4
 
Date/Time
EST
Temp
°C
App
Temp
°C
Dew
Point
°C
Rel
Hum
%
Delta-T
°C
Wind Press
QNH
hPa
Press
MSL
hPa
Rain since
9am
mm
Dir  Spd
km/h
Gust
km/h
Spd
kts
Gust
kts
22/11:30pm 2.7 1.1 2.3 97 0.2 CALM 0 0 0 0 1014.3 1015.1 2.4
22/11:00pm 2.7 0.3 2.1 96 0.2 SE 4 11 2 6 1014.4 1015.2 2.4
22/10:30pm 3.5 0.8 2.8 95 0.3 SSW 6 9 3 5 1014.4 1015.2 2.4
22/10:00pm 3.7 1.0 2.8 94 0.4 SSE 6 7 3 4 1014.3 1015.1 2.4
22/09:30pm 4.8 3.5 3.9 94 0.4 CALM 0 0 0 0 1014.4 1015.2 2.4
22/09:00pm 5.2 1.9 4.3 94 0.4 S 11 17 6 9 1014.5 1015.3 2.4
22/08:30pm 5.3 2.9 4.4 94 0.4 SSW 6 9 3 5 1014.5 1015.3 2.4
22/08:00pm 5.8 4.3 4.9 94 0.4 W 2 7 1 4 1014.4 1015.2 2.4
22/07:30pm 6.0 4.1 5.0 93 0.5 SE 4 7 2 4 1014.1 1014.8 2.0
22/07:00pm 6.1 3.8 4.7 91 0.6 SW 6 9 3 5 1013.9 1014.6 0.8
22/06:30pm 6.6 4.3 4.6 87 0.9 SW 6 9 3 5 1013.6 1014.3 0.2
22/06:00pm 7.1 4.7 4.2 82 1.3 WSW 6 7 3 4 1013.1 1013.9 0.2
22/05:30pm 7.9 5.8 3.8 75 1.8 SW 4 7 2 4 1013.0 1013.8 0.2
22/05:00pm 8.1 5.0 3.8 74 1.9 N 9 11 5 6 1012.6 1013.3 0.2
22/04:30pm 8.2 5.1 3.7 73 2.0 N 9 15 5 8 1012.5 1013.2 0.2
22/04:00pm 8.6 4.4 4.0 73 2.1 NNW 15 20 8 11 1012.3 1013.0 0.2
22/03:30pm 9.2 5.0 3.8 69 2.5 N 15 20 8 11 1012.5 1013.2 0.2
22/03:00pm 9.7 5.2 4.3 69 2.5 N 17 22 9 12 1012.4 1013.1 0.2
22/02:30pm 9.4 5.3 4.4 71 2.3 N 15 20 8 11 1012.7 1013.4 0.2
22/02:00pm 9.3 5.6 4.3 71 2.3 N 13 19 7 10 1012.8 1013.5 0.2
22/01:30pm 9.0 5.0 4.8 75 1.9 NNE 15 20 8 11 1013.2 1014.0 0.2
22/01:00pm 8.1 4.6 5.6 84 1.2 NNE 13 20 7 11 1013.7 1014.4 0.2
22/12:30pm 7.9 3.8 4.3 78 1.6 N 15 22 8 12 1014.0 1014.7 0.0
22/12:00pm 8.6 4.5 4.6 76 1.8 N 15 22 8 12 1014.3 1015.1 0.0
22/11:30am 9.3 5.1 3.7 68 2.5 N 15 20 8 11 1014.4 1015.2 0.0
22/11:00am 9.2 5.1 4.4 72 2.2 N 15 20 8 11 1014.6 1015.4 0.0
22/10:30am 8.2 4.7 3.5 72 2.1 N 11 17 6 9 1014.7 1015.5 0.0
22/10:00am 7.7 3.6 4.3 79 1.5 N 15 20 8 11 1015.2 1015.9 0.0
22/09:30am 6.9 3.1 4.0 82 1.3 N 13 17 7 9 1015.5 1016.3 0.0
22/09:00am 6.4 3.0 3.9 84 1.1 N 11 15 6 8 1015.5 1016.3 0.8
22/08:30am 6.2 3.2 3.9 85 1.0 N 9 15 5 8 1015.3 1016.0 0.8
22/08:00am 5.7 1.8 3.5 86 1.0 N 13 17 7 9 1015.2 1015.9 0.8
22/07:30am 5.3 1.4 3.3 87 0.9 N 13 17 7 9 1015.1 1015.8 0.8
22/07:00am 5.2 2.0 3.1 86 0.9 NNE 9 19 5 10 1015.0 1015.7 0.8
22/06:30am 5.5 1.5 3.0 84 1.1 N 13 20 7 11 1014.5 1015.3 0.8
22/06:00am 5.2 2.0 3.1 86 0.9 N 9 15 5 8 1014.3 1015.1 0.8
22/05:30am 5.5 0.8 3.2 85 1.0 N 17 22 9 12 1014.0 1014.7 0.8
22/05:00am 5.7 1.8 3.5 86 1.0 NNE 13 20 7 11 1013.9 1014.6 0.8
22/04:30am 6.2 2.1 4.2 87 0.9 NNW 15 22 8 12 1013.7 1014.4 0.8
22/04:00am 6.3 2.9 4.0 85 1.0 N 11 17 6 9 1013.9 1014.6 0.8
22/03:30am 6.1 2.8 4.3 88 0.8 N 11 17 6 9 1014.1 1014.8 0.8
22/03:00am 6.4 2.7 4.6 88 0.8 N 13 19 7 10 1014.1 1014.8 0.8
22/02:30am 6.0 2.4 4.8 92 0.5 N 13 19 7 10 1014.1 1014.8 0.8
22/02:00am 6.2 3.0 5.2 93 0.5 N 11 15 6 8 1014.6 1015.4 0.8
22/01:30am 6.0 2.0 5.1 94 0.4 N 15 22 8 12 1014.8 1015.6 0.4
22/01:00am 5.8 2.6 5.1 95 0.3 N 11 17 6 9 1014.7 1015.5 0.4
22/12:30am 5.5 2.2 4.8 95 0.3 N 11 15 6 8 1014.8 1015.6 0.4
22/12:00am 5.7 2.9 5.1 96 0.3 NNW 9 13 5 7 1015.0 1015.7 0.4
 
Date/Time
EST
Temp
°C
App
Temp
°C
Dew
Point
°C
Rel
Hum
%
Delta-T
°C
Wind Press
QNH
hPa
Press
MSL
hPa
Rain since
9am
mm
Dir  Spd
km/h
Gust
km/h
Spd
kts
Gust
kts
21/11:30pm 5.7 3.2 4.7 93 0.5 N 7 9 4 5 1015.1 1015.8 0.4
21/11:00pm 5.7 3.8 4.7 93 0.5 N 4 7 2 4 1015.4 1016.1 0.4
21/10:30pm 5.8 3.9 5.1 95 0.3 WNW 4 7 2 4 1015.6 1016.4 0.2
21/10:00pm 5.9 3.1 5.2 95 0.3 NW 9 11 5 6 1016.0 1016.8 0.2
21/09:30pm 5.8 1.8 5.1 95 0.3 N 15 22 8 12 1015.7 1016.5 0.2
21/09:00pm 5.6 2.7 4.7 94 0.4 NNW 9 15 5 8 1015.8 1016.6 0.0
21/08:30pm 5.7 2.8 4.5 92 0.5 NNW 9 15 5 8 1015.4 1016.1 0.0
21/08:00pm 5.8 2.1 4.3 90 0.7 N 13 19 7 10 1015.2 1015.9 0.0
21/07:30pm 5.8 0.8 4.6 92 0.5 N 20 28 11 15 1015.2 1015.9 0.0
21/07:00pm 5.8 2.0 4.0 88 0.8 N 13 17 7 9 1015.1 1015.8 0.0
21/06:30pm 6.5 1.9 3.8 83 1.2 N 17 24 9 13 1015.0 1015.7 0.0
21/06:00pm 6.1 2.1 4.7 91 0.6 N 15 22 8 12 1014.7 1015.5 0.0
21/05:30pm 6.8 3.1 4.5 85 1.0 N 13 20 7 11 1014.6 1015.4 0.0
21/05:00pm 7.6 2.8 4.6 81 1.4 N 19 28 10 15 1014.3 1015.1 0.0
21/04:30pm 8.8 3.7 4.2 73 2.1 N 20 28 11 15 1014.1 1014.8 0.0

Other Formats:

Comma delimited format used in spreadsheet applications
http://www.bom.gov.au/fwo/IDV60801/IDV60801.94908.axf

JavaScript Object Notation format (JSON) in row-major order
http://www.bom.gov.au/fwo/IDV60801/IDV60801.94908.json